createdAt,value
2023-03-05T00:00:05.487Z,97725.81
2023-03-05T00:03:08.308Z,97722.50
2023-03-05T00:06:11.468Z,97722.09
2023-03-05T00:09:15.605Z,97731.34
2023-03-05T00:12:18.898Z,97724.13
2023-03-05T00:15:23.046Z,97739.78
2023-03-05T00:18:25.980Z,97729.06
2023-03-05T00:21:29.859Z,97722.69
2023-03-05T00:24:32.617Z,97735.66
2023-03-05T00:27:35.429Z,97727.78
2023-03-05T00:30:39.766Z,97723.69
2023-03-05T00:33:42.525Z,97720.78
2023-03-05T00:36:45.969Z,97723.25
2023-03-05T00:39:48.731Z,97722.00
2023-03-05T00:42:51.760Z,97714.38
2023-03-05T00:45:55.972Z,97722.97
2023-03-05T00:48:58.795Z,97733.63
2023-03-05T00:52:01.642Z,97735.72
2023-03-05T00:55:04.679Z,97730.75
2023-03-05T00:58:07.475Z,97725.19
2023-03-05T01:01:11.605Z,97733.63
2023-03-05T01:04:14.410Z,97727.03
2023-03-05T01:07:17.133Z,97718.16
2023-03-05T01:10:19.983Z,97719.59
2023-03-05T01:13:22.752Z,97726.34
2023-03-05T01:16:26.983Z,97726.75
2023-03-05T01:19:29.829Z,97721.78
2023-03-05T01:22:34.916Z,97733.69
2023-03-05T01:25:37.694Z,97730.19
2023-03-05T01:28:40.623Z,97727.47
2023-03-05T01:31:44.817Z,97746.38
2023-03-05T01:34:47.631Z,97754.75
2023-03-05T01:37:50.598Z,97760.69
2023-03-05T01:40:53.456Z,97762.72
2023-03-05T01:43:56.368Z,97770.13
2023-03-05T01:47:03.005Z,97770.13
2023-03-05T01:50:06.673Z,97770.53
2023-03-05T01:53:09.668Z,97775.41
2023-03-05T01:56:12.628Z,97775.81
2023-03-05T01:59:15.719Z,97786.66
2023-03-05T02:02:23.250Z,97784.19
2023-03-05T02:05:28.135Z,97773.72
2023-03-05T02:08:31.009Z,97784.78
2023-03-05T02:11:34.759Z,97796.63
2023-03-05T02:14:40.603Z,97800.53
2023-03-05T02:17:44.737Z,97783.88
2023-03-05T02:20:51.265Z,97795.38
2023-03-05T02:23:55.490Z,97799.44
2023-03-05T02:26:58.654Z,97799.44
2023-03-05T02:30:01.998Z,97811.50
2023-03-05T02:33:06.861Z,97827.53
2023-03-05T02:36:10.703Z,97833.25
2023-03-05T02:39:14.927Z,97823.16
2023-03-05T02:42:17.781Z,97827.03
2023-03-05T02:45:23.084Z,97831.75
2023-03-05T02:48:25.854Z,97828.25
2023-03-05T02:51:28.784Z,97849.16
2023-03-05T02:54:32.927Z,97851.81
2023-03-05T02:57:35.781Z,97853.03
2023-03-05T03:00:38.564Z,97860.03
2023-03-05T03:03:41.917Z,97863.44
2023-03-05T03:06:44.941Z,97859.63
2023-03-05T03:09:49.169Z,97874.00
2023-03-05T03:12:52.007Z,97876.72
2023-03-05T03:16:02.452Z,97864.56
2023-03-05T03:19:06.077Z,97872.22
2023-03-05T03:22:09.701Z,97881.13
2023-03-05T03:25:15.121Z,97885.31
2023-03-05T03:28:17.919Z,97891.09
2023-03-05T03:31:20.914Z,97898.13
2023-03-05T03:34:26.392Z,97887.44
2023-03-05T03:37:31.931Z,97894.50
2023-03-05T03:40:37.509Z,97906.00
2023-03-05T03:43:40.337Z,97897.31
2023-03-05T03:46:45.546Z,97894.63
2023-03-05T03:49:48.379Z,97898.78
2023-03-05T03:52:51.147Z,97902.91
2023-03-05T03:55:58.789Z,97897.84
2023-03-05T03:59:03.383Z,97904.13
2023-03-05T04:02:07.486Z,97909.91
2023-03-05T04:05:10.574Z,97903.19
2023-03-05T04:08:13.345Z,97914.50
2023-03-05T04:11:19.451Z,97912.03
2023-03-05T04:14:22.375Z,97916.59
2023-03-05T04:17:25.271Z,97926.63
2023-03-05T04:20:28.135Z,97922.75
2023-03-05T04:23:30.902Z,97927.31
2023-03-05T04:26:35.033Z,97930.53
2023-03-05T04:29:37.829Z,97948.69
2023-03-05T04:32:40.669Z,97949.69
2023-03-05T04:35:43.565Z,97959.94
2023-03-05T04:38:47.368Z,97966.56
2023-03-05T04:41:52.851Z,97958.72
2023-03-05T04:44:55.641Z,97958.09
2023-03-05T04:47:58.513Z,97974.75
2023-03-05T04:51:01.317Z,97976.25
2023-03-05T04:54:04.141Z,97983.84
2023-03-05T04:57:08.452Z,97989.84
2023-03-05T05:00:14.429Z,97991.69
2023-03-05T05:03:18.909Z,97995.59
2023-03-05T05:06:21.783Z,97998.00
2023-03-05T05:09:24.743Z,97992.66
2023-03-05T05:12:31.005Z,98004.09
2023-03-05T05:15:33.921Z,98010.25
2023-03-05T05:18:38.574Z,98010.81
2023-03-05T05:21:42.591Z,98006.03
2023-03-05T05:24:45.390Z,98019.16
2023-03-05T05:27:50.546Z,98027.75
2023-03-05T05:30:56.779Z,98029.13
2023-03-05T05:33:59.651Z,98036.72
2023-03-05T05:37:02.468Z,98039.75
2023-03-05T05:40:06.720Z,98046.94
2023-03-05T05:43:10.952Z,98045.09
2023-03-05T05:46:15.652Z,98055.34
2023-03-05T05:49:18.544Z,98062.34
2023-03-05T05:52:21.328Z,98055.16
2023-03-05T05:55:26.923Z,98060.06
2023-03-05T05:58:31.099Z,98067.00
2023-03-05T06:01:34.266Z,98074.34
2023-03-05T06:04:37.081Z,98062.22
2023-03-05T06:07:41.814Z,98082.13
2023-03-05T06:10:44.621Z,98077.81
2023-03-05T06:13:49.264Z,98092.53
2023-03-05T06:16:52.290Z,98097.41
2023-03-05T06:19:55.837Z,98096.97
2023-03-05T06:22:58.711Z,98093.84
2023-03-05T06:26:02.017Z,98102.88
2023-03-05T06:29:06.194Z,98099.56
2023-03-05T06:32:09.222Z,98110.69
2023-03-05T06:35:12.113Z,98110.34
2023-03-05T06:38:16.260Z,98117.97
2023-03-05T06:41:21.217Z,98123.19
2023-03-05T06:44:25.863Z,98125.56
2023-03-05T06:47:28.707Z,98133.44
2023-03-05T06:50:31.469Z,98141.25
2023-03-05T06:53:34.192Z,98143.75
2023-03-05T06:56:38.145Z,98141.16
2023-03-05T06:59:42.315Z,98141.16
2023-03-05T07:02:45.116Z,98137.88
2023-03-05T07:05:48.134Z,98156.06
2023-03-05T07:08:51.146Z,98144.56
2023-03-05T07:11:53.931Z,98154.97
2023-03-05T07:15:00.430Z,98157.81
2023-03-05T07:18:03.188Z,98160.50
2023-03-05T07:21:06.308Z,98160.88
2023-03-05T07:24:09.756Z,98155.16
2023-03-05T07:27:12.589Z,98167.22
2023-03-05T07:30:16.887Z,98160.38
2023-03-05T07:33:19.733Z,98166.94
2023-03-05T07:36:22.508Z,98173.91
2023-03-05T07:39:25.250Z,98163.44
2023-03-05T07:42:28.113Z,98173.72
2023-03-05T07:45:32.528Z,98168.78
2023-03-05T07:48:37.354Z,98165.09
2023-03-05T07:51:41.609Z,98169.59
2023-03-05T07:54:44.441Z,98168.28
2023-03-05T07:57:47.239Z,98165.47
2023-03-05T08:00:51.472Z,98156.16
2023-03-05T08:03:54.390Z,98161.31
2023-03-05T08:06:57.221Z,98167.84
2023-03-05T08:10:00.017Z,98173.63
2023-03-05T08:13:03.073Z,98169.59
2023-03-05T08:16:08.192Z,98182.31
2023-03-05T08:19:11.230Z,98185.97
2023-03-05T08:22:16.193Z,98184.31
2023-03-05T08:25:19.294Z,98184.78
2023-03-05T08:28:22.144Z,98190.94
2023-03-05T08:31:27.253Z,98190.94
2023-03-05T08:34:30.110Z,98203.28
2023-03-05T08:37:32.833Z,98205.84
2023-03-05T08:40:35.704Z,98201.16
2023-03-05T08:43:41.021Z,98194.16
2023-03-05T08:46:45.146Z,98197.09
2023-03-05T08:49:48.238Z,98204.53
2023-03-05T08:52:51.024Z,98216.22
2023-03-05T08:55:56.898Z,98210.78
2023-03-05T08:58:59.735Z,98214.28
2023-03-05T09:02:06.597Z,98221.63
2023-03-05T09:05:09.775Z,98229.56
2023-03-05T09:08:12.709Z,98230.06
2023-03-05T09:11:15.578Z,98235.50
2023-03-05T09:14:18.688Z,98233.50
2023-03-05T09:17:23.070Z,98237.09
2023-03-05T09:20:25.916Z,98232.63
2023-03-05T09:23:28.696Z,98239.75
2023-03-05T09:26:33.828Z,98247.19
2023-03-05T09:29:36.620Z,98247.47
2023-03-05T09:32:40.852Z,98242.75
2023-03-05T09:35:46.524Z,98254.56
2023-03-05T09:38:49.549Z,98245.00
2023-03-05T09:42:14.388Z,98254.47
2023-03-05T09:45:21.591Z,98243.59
2023-03-05T09:48:27.486Z,98244.69
2023-03-05T09:51:32.756Z,98245.91
2023-03-05T09:54:38.892Z,98249.50
2023-03-05T09:57:43.683Z,98249.09
2023-03-05T10:00:48.375Z,98251.16
2023-03-05T10:03:56.906Z,98250.13
2023-03-05T10:07:01.678Z,98253.06
2023-03-05T10:10:06.511Z,98257.13
2023-03-05T10:13:15.129Z,98245.06
2023-03-05T10:16:32.103Z,98257.22
2023-03-05T10:19:42.551Z,98258.03
2023-03-05T10:22:56.252Z,98251.13
2023-03-05T10:26:19.576Z,98259.34
2023-03-05T10:29:39.381Z,98249.28
2023-03-05T10:32:48.356Z,98252.63
2023-03-05T10:36:11.209Z,98254.44
2023-03-05T10:39:37.048Z,98243.81
2023-03-05T10:42:48.368Z,98250.19
2023-03-05T10:45:52.131Z,98250.28
2023-03-05T10:48:56.726Z,98250.06
2023-03-05T10:52:04.620Z,98256.84
2023-03-05T10:55:14.871Z,98254.59
2023-03-05T10:58:17.903Z,98255.41
2023-03-05T11:01:25.158Z,98253.44
2023-03-05T11:04:28.883Z,98257.66
2023-03-05T11:07:36.868Z,98262.38
2023-03-05T11:10:39.669Z,98268.81
2023-03-05T11:13:52.225Z,98268.72
2023-03-05T11:16:54.983Z,98268.28
2023-03-05T11:19:58.086Z,98265.81
2023-03-05T11:23:06.847Z,98262.84
2023-03-05T11:26:19.748Z,98275.09
2023-03-05T11:29:24.822Z,98261.94
2023-03-05T11:32:28.487Z,98264.31
2023-03-05T11:35:33.413Z,98263.41
2023-03-05T11:38:46.171Z,98268.31
2023-03-05T11:41:49.889Z,98263.31
2023-03-05T11:44:54.190Z,98276.22
2023-03-05T11:47:59.728Z,98264.88
2023-03-05T11:51:03.465Z,98268.94
2023-03-05T11:54:10.268Z,98273.16
2023-03-05T11:57:14.484Z,98281.91
2023-03-05T12:00:18.944Z,98282.47
2023-03-05T12:03:23.251Z,98291.47
2023-03-05T12:06:30.055Z,98288.34
2023-03-05T12:09:40.940Z,98294.72
2023-03-05T12:12:47.406Z,98294.72
2023-03-05T12:15:57.475Z,98289.78
2023-03-05T12:19:09.609Z,98299.28
2023-03-05T12:22:20.130Z,98298.16
2023-03-05T12:25:32.356Z,98304.84
2023-03-05T12:28:53.586Z,98304.84
2023-03-05T12:31:56.710Z,98296.22
2023-03-05T12:34:59.830Z,98302.91
2023-03-05T12:38:25.657Z,98306.78
2023-03-05T12:41:38.537Z,98309.16
2023-03-05T12:44:42.675Z,98311.63
2023-03-05T12:47:46.807Z,98309.31
2023-03-05T12:50:52.709Z,98312.34
2023-03-05T12:53:55.534Z,98315.88
2023-03-05T12:56:59.727Z,98309.03
2023-03-05T13:00:10.939Z,98322.94
2023-03-05T13:03:18.477Z,98318.94
2023-03-05T13:06:25.082Z,98317.09
2023-03-05T13:09:31.858Z,98315.25
2023-03-05T13:12:53.015Z,98314.03
2023-03-05T13:15:57.555Z,98308.91
2023-03-05T13:19:02.852Z,98320.97
2023-03-05T13:22:14.524Z,98309.63
2023-03-05T13:25:20.630Z,98319.41
2023-03-05T13:28:23.429Z,98318.88
2023-03-05T13:31:27.646Z,98321.84
2023-03-05T13:34:46.210Z,98323.53
2023-03-05T13:37:50.622Z,98314.97
2023-03-05T13:41:07.643Z,98316.09
2023-03-05T13:44:21.881Z,98322.28
2023-03-05T13:47:28.570Z,98318.41
2023-03-05T13:50:32.305Z,98325.50
2023-03-05T13:53:35.386Z,98320.34
2023-03-05T13:56:49.299Z,98320.09
2023-03-05T13:59:53.444Z,98316.41
2023-03-05T14:02:59.676Z,98313.72
2023-03-05T14:06:07.903Z,98314.91
2023-03-05T14:09:19.458Z,98317.66
2023-03-05T14:12:27.425Z,98325.06
2023-03-05T14:15:30.918Z,98324.22
2023-03-05T14:18:35.335Z,98319.16
2023-03-05T14:21:46.041Z,98321.47
2023-03-05T14:24:52.998Z,98324.97
2023-03-05T14:27:55.892Z,98326.44
2023-03-05T14:30:58.804Z,98324.78
2023-03-05T14:34:04.279Z,98327.28
2023-03-05T14:37:09.403Z,98328.56
2023-03-05T14:40:20.656Z,98326.72
2023-03-05T14:43:25.813Z,98324.31
2023-03-05T14:46:28.810Z,98333.72
2023-03-05T14:49:32.957Z,98329.03
2023-03-05T14:52:36.161Z,98326.69
2023-03-05T14:55:39.410Z,98328.47
2023-03-05T14:58:42.248Z,98332.88
2023-03-05T15:01:47.174Z,98331.69
2023-03-05T15:04:53.473Z,98336.03
2023-03-05T15:07:56.347Z,98335.38
2023-03-05T15:10:59.913Z,98332.84
2023-03-05T15:14:02.842Z,98332.72
2023-03-05T15:17:08.071Z,98338.69
2023-03-05T15:20:16.106Z,98336.13
2023-03-05T15:23:21.654Z,98329.78
2023-03-05T15:26:24.393Z,98338.63
2023-03-05T15:29:30.098Z,98343.78
2023-03-05T15:32:32.898Z,98348.06
2023-03-05T15:35:39.409Z,98348.56
2023-03-05T15:38:43.185Z,98357.03
2023-03-05T15:41:46.378Z,98367.72
2023-03-05T15:44:49.178Z,98359.25
2023-03-05T15:47:52.529Z,98357.53
2023-03-05T15:50:56.671Z,98366.91
2023-03-05T15:53:59.387Z,98366.91
2023-03-05T15:57:02.198Z,98375.44
2023-03-05T16:00:05.445Z,98371.91
2023-03-05T16:03:08.371Z,98386.75
2023-03-05T16:06:13.466Z,98389.44
2023-03-05T16:09:20.214Z,98391.66
2023-03-05T16:12:24.020Z,98394.16
2023-03-05T16:15:26.868Z,98391.38
2023-03-05T16:18:31.166Z,98402.34
2023-03-05T16:21:35.470Z,98399.69
2023-03-05T16:24:38.339Z,98398.53
2023-03-05T16:27:41.166Z,98395.88
2023-03-05T16:30:46.373Z,98394.75
2023-03-05T16:33:49.265Z,98389.13
2023-03-05T16:36:56.878Z,98389.00
2023-03-05T16:40:01.467Z,98388.38
2023-03-05T16:43:09.074Z,98385.41
2023-03-05T16:46:11.881Z,98387.81
2023-03-05T16:49:14.676Z,98390.84
2023-03-05T16:52:20.859Z,98375.19
2023-03-05T16:55:23.824Z,98369.06
2023-03-05T16:58:26.665Z,98368.63
2023-03-05T17:01:30.399Z,98360.31
2023-03-05T17:04:33.391Z,98364.19
2023-03-05T17:07:40.357Z,98357.63
2023-03-05T17:10:46.088Z,98371.00
2023-03-05T17:13:49.341Z,98379.47
2023-03-05T17:16:54.793Z,98374.94
2023-03-05T17:19:57.610Z,98368.09
2023-03-05T17:23:04.071Z,98374.28
2023-03-05T17:26:07.730Z,98376.94
2023-03-05T17:29:10.583Z,98370.50
2023-03-05T17:32:13.406Z,98370.41
2023-03-05T17:35:19.191Z,98374.00
2023-03-05T17:38:23.721Z,98383.03
2023-03-05T17:41:26.548Z,98381.94
2023-03-05T17:44:29.326Z,98383.59
2023-03-05T17:47:33.182Z,98383.66
2023-03-05T17:50:46.349Z,98383.00
2023-03-05T17:53:50.537Z,98375.53
2023-03-05T17:56:54.965Z,98386.09
2023-03-05T17:59:58.784Z,98383.06
2023-03-05T18:03:01.634Z,98386.34
2023-03-05T18:06:05.086Z,98388.59
2023-03-05T18:09:10.602Z,98402.25
2023-03-05T18:12:16.098Z,98389.94
2023-03-05T18:15:20.169Z,98396.09
2023-03-05T18:18:25.356Z,98398.50
2023-03-05T18:21:28.298Z,98405.00
2023-03-05T18:24:32.593Z,98401.28
2023-03-05T18:27:35.379Z,98401.94
2023-03-05T18:30:41.182Z,98393.03
2023-03-05T18:33:44.083Z,98400.63
2023-03-05T18:36:47.159Z,98395.91
2023-03-05T18:39:52.125Z,98392.53
2023-03-05T18:42:54.982Z,98402.69
2023-03-05T18:45:58.539Z,98391.72
2023-03-05T18:49:01.475Z,98391.19
2023-03-05T18:52:04.487Z,98394.84
2023-03-05T18:55:09.356Z,98397.00
2023-03-05T18:58:14.249Z,98396.09
2023-03-05T19:01:18.244Z,98397.47
2023-03-05T19:04:21.176Z,98387.78
2023-03-05T19:07:24.013Z,98394.44
2023-03-05T19:10:28.275Z,98389.28
2023-03-05T19:13:39.886Z,98393.31
2023-03-05T19:16:44.255Z,98396.69
2023-03-05T19:19:50.693Z,98388.41
2023-03-05T19:22:55.828Z,98391.63
2023-03-05T19:26:01.523Z,98404.47
2023-03-05T19:29:04.340Z,98404.22
2023-03-05T19:32:08.284Z,98399.41
2023-03-05T19:35:14.991Z,98402.56
2023-03-05T19:38:17.897Z,98402.09
2023-03-05T19:41:22.228Z,98405.59
2023-03-05T19:44:24.977Z,98418.47
2023-03-05T19:47:29.600Z,98406.09
2023-03-05T19:50:34.146Z,98406.38
2023-03-05T19:53:37.401Z,98408.03
2023-03-05T19:56:41.867Z,98408.41
2023-03-05T19:59:47.103Z,98406.56
2023-03-05T20:02:49.806Z,98402.56
2023-03-05T20:05:52.567Z,98406.25
2023-03-05T20:08:55.407Z,98411.47
2023-03-05T20:12:02.799Z,98409.81
2023-03-05T20:15:05.884Z,98402.31
2023-03-05T20:18:10.027Z,98402.50
2023-03-05T20:21:13.374Z,98399.34
2023-03-05T20:24:17.141Z,98393.53
2023-03-05T20:27:21.322Z,98395.25
2023-03-05T20:30:24.298Z,98400.59
2023-03-05T20:33:27.785Z,98396.38
2023-03-05T20:36:30.649Z,98398.19
2023-03-05T20:39:36.343Z,98385.78
2023-03-05T20:42:42.390Z,98386.94
2023-03-05T20:45:45.632Z,98383.66
2023-03-05T20:48:51.440Z,98378.69
2023-03-05T20:51:54.239Z,98378.41
2023-03-05T20:54:57.058Z,98378.41
2023-03-05T20:58:01.146Z,98379.09
2023-03-05T21:01:03.936Z,98382.69
2023-03-05T21:04:06.870Z,98365.66
2023-03-05T21:07:11.202Z,98371.28
2023-03-05T21:10:16.076Z,98363.81
2023-03-05T21:13:20.257Z,98355.91
2023-03-05T21:16:24.188Z,98359.78
2023-03-05T21:19:27.089Z,98355.66
2023-03-05T21:22:31.325Z,98360.16
2023-03-05T21:25:35.946Z,98359.41
2023-03-05T21:28:42.935Z,98365.13
2023-03-05T21:31:45.721Z,98359.91
2023-03-05T21:34:48.720Z,98360.09
2023-03-05T21:37:54.384Z,98361.09
2023-03-05T21:40:58.973Z,98354.00
2023-03-05T21:44:04.213Z,98355.75
2023-03-05T21:47:08.542Z,98357.22
2023-03-05T21:50:13.693Z,98356.78
2023-03-05T21:53:16.892Z,98362.38
2023-03-05T21:56:26.431Z,98353.63
2023-03-05T21:59:33.548Z,98356.94
2023-03-05T22:02:36.314Z,98352.91
2023-03-05T22:05:39.116Z,98356.59
2023-03-05T22:08:43.050Z,98348.81
2023-03-05T22:11:45.955Z,98348.19
2023-03-05T22:14:52.464Z,98355.00
2023-03-05T22:17:55.273Z,98347.66
2023-03-05T22:20:58.920Z,98346.00
2023-03-05T22:24:03.785Z,98341.63
2023-03-05T22:27:09.084Z,98341.91
2023-03-05T22:30:14.173Z,98349.59
2023-03-05T22:33:17.022Z,98343.13
2023-03-05T22:36:20.082Z,98344.88
2023-03-05T22:39:22.826Z,98342.75
2023-03-05T22:42:25.720Z,98342.94
2023-03-05T22:45:30.199Z,98344.06
2023-03-05T22:48:32.928Z,98346.25
2023-03-05T22:51:35.740Z,98345.25
2023-03-05T22:54:38.519Z,98351.88
2023-03-05T22:57:41.732Z,98345.59
2023-03-05T23:00:47.217Z,98349.19
2023-03-05T23:04:17.427Z,98340.34
2023-03-05T23:07:23.564Z,98340.25
2023-03-05T23:10:28.689Z,98336.47
2023-03-05T23:13:31.519Z,98331.50
2023-03-05T23:16:38.336Z,98325.53
2023-03-05T23:19:41.109Z,98332.63
2023-03-05T23:22:44.779Z,98325.97
2023-03-05T23:25:47.591Z,98330.31
2023-03-05T23:28:52.665Z,98322.56
2023-03-05T23:31:56.818Z,98322.28
2023-03-05T23:34:59.645Z,98325.44
2023-03-05T23:38:03.109Z,98319.34
2023-03-05T23:41:09.511Z,98322.28
2023-03-05T23:44:12.301Z,98318.75
2023-03-05T23:47:16.460Z,98312.78
2023-03-05T23:50:22.093Z,98320.72
2023-03-05T23:53:27.545Z,98315.75
2023-03-05T23:56:31.519Z,98315.66
2023-03-05T23:59:34.309Z,98307.34
